Kezdőlap
METAR-TAF:

METAR-TAF

Repülőterek :

Kano, Nigéria

földrajzi szélesség: 12-03N, földrajzi hosszúság: 008-32E, magasság: 476 m

Jelenlegi meteorológiai megfigyelések

A jelentés 41 perccel ezelõtt készült, 23:00 UTC
Szélcsend
Hőmérséklet 28°C
Páratartalom 30%
Légköri nyomás 1012 hPa
Látótávolság 10 km, vagy több
felhőtlen 1500 m magasságban, és nincs gomolyfelhõ

METAR: DNKN 192300Z 00000KT CAVOK 28/09 Q1012 NOSIG

Idő: 00:41 (23:41 UTC)

Előrejelzés

A jelentés 41 perccel ezelõtt készült, 23:00 UTC
Az előrejelzés 20-én 00 óra UTC és 21-én 06 óra UTC között érvényes
Déli szél 3 kt
Látótávolság 10 km, vagy több
felhőtlen 1500 m magasságban, és nincs gomolyfelhõ
20-én 10 óra UTC és 20-én 15 óra UTC között ideiglenes
Nyugati szél 10 kt

TAF: DNKN 192300Z 2000/2106 19003KT CAVOK TEMPO 2010/2015 28010KT

Meteorológiai megfigyelések és előrejelzések több, mint 4000 repülőtéren (METAR és TAF jelentéseket).

A térképen piros és sárga pontok jelzik az elérhető meteorológiai állomásokat.

Mozgassa az egeret a pont fölött, hogy megjelenjen az állomás neve.

Azután kattintson az időjárási megfigyelések és előrejelzések megtekintéséhez.

A térkép megváltoztatása: kattintson a fekete keresztel jelölt zöld gombra ráközelítéshez, a vonallal jelölt zöld gombra távolításhoz, vagy a zöld nyilakra a szomszédos térképek eléréséhez.


METAR-TAF: